Time;durP1;ratioP1;P1;durP2;ratioP2;P2;SDS_P1;SDS_P2;PMS_P1;PMS_P2;Temp;Humidity;BMP_temperature;BMP_pressure;BME280_temperature;BME280_humidity;BME280_pressure;Samples;Min_cycle;Max_cycle;Signal;HPM_P1;HPM_P2
2021/12/02 00:01:07;;;;;;;9.80;1.63;;;;;;;;;;5088189;28;20072;-62
2021/12/02 00:03:35;;;;;;;11.43;1.60;;;;;;;;;;5089398;28;20435;-62
2021/12/02 00:06:01;;;;;;;12.37;1.97;;;;;;;;;;5091887;28;20293;-62
2021/12/02 00:08:27;;;;;;;10.23;1.60;;;;;;;;;;5090280;28;20804;-62
2021/12/02 00:10:53;;;;;;;11.97;1.90;;;;;;;;;;5091799;28;20285;-61
2021/12/02 00:13:23;;;;;;;10.17;1.53;;;;;;;;;;5089957;28;20036;-62
2021/12/02 00:15:59;;;;;;;10.97;1.63;;;;;;;;;;5088805;28;20142;-61
2021/12/02 00:23:47;;;;;;;6.37;1.30;;;;;;;;;;5071697;28;20565;-62
2021/12/02 00:26:15;;;;;;;9.27;1.47;;;;;;;;;;5072003;28;20070;-62
2021/12/02 00:28:41;;;;;;;7.30;1.57;;;;;;;;;;5091569;28;20365;-62
2021/12/02 00:31:12;;;;;;;7.77;1.27;;;;;;;;;;5089564;28;20193;-61
2021/12/02 00:33:39;;;;;;;7.10;1.20;;;;;;;;;;5088193;28;20354;-62
2021/12/02 00:36:05;;;;;;;5.07;1.00;;;;;;;;;;5091630;28;20047;-62
2021/12/02 00:38:31;;;;;;;7.00;1.30;;;;;;;;;;5090637;28;20044;-62
2021/12/02 00:40:57;;;;;;;7.10;1.23;;;;;;;;;;5091070;28;20386;-62
2021/12/02 00:43:23;;;;;;;6.63;0.80;;;;;;;;;;5089048;28;20048;-62
2021/12/02 00:45:49;;;;;;;7.90;1.27;;;;;;;;;;5090715;28;20550;-62
2021/12/02 00:48:16;;;;;;;6.93;1.57;;;;;;;;;;5091551;28;20044;-62
2021/12/02 00:50:48;;;;;;;5.13;1.00;;;;;;;;;;5073469;28;20048;-62
2021/12/02 00:53:14;;;;;;;6.30;1.30;;;;;;;;;;5071536;28;20131;-62
2021/12/02 00:55:41;;;;;;;10.70;1.63;;;;;;;;;;5089438;28;20051;-62
2021/12/02 00:58:07;;;;;;;8.63;1.47;;;;;;;;;;5089106;28;20071;-62
2021/12/02 01:00:34;;;;;;;8.57;1.30;;;;;;;;;;5090642;28;20501;-62
2021/12/02 01:03:01;;;;;;;6.07;1.30;;;;;;;;;;5090706;28;20044;-62
2021/12/02 01:05:29;;;;;;;7.30;1.30;;;;;;;;;;5087104;28;20298;-62
2021/12/02 01:07:55;;;;;;;6.60;1.50;;;;;;;;;;5091143;28;20293;-62
2021/12/02 01:10:21;;;;;;;4.60;0.70;;;;;;;;;;5091459;28;20036;-62
2021/12/02 01:12:49;;;;;;;9.27;1.33;;;;;;;;;;5090249;28;20088;-62
2021/12/02 01:15:15;;;;;;;13.43;1.80;;;;;;;;;;5090760;28;20081;-61
2021/12/02 01:17:41;;;;;;;5.93;1.27;;;;;;;;;;5089944;28;20516;-62
2021/12/02 01:20:07;;;;;;;9.67;1.37;;;;;;;;;;5090017;28;20044;-61
2021/12/02 01:22:36;;;;;;;11.20;1.67;;;;;;;;;;5089280;28;20036;-62
2021/12/02 01:25:03;;;;;;;6.97;1.30;;;;;;;;;;5090950;28;20112;-62
2021/12/02 01:27:29;;;;;;;6.03;1.43;;;;;;;;;;5089953;28;20047;-62
2021/12/02 01:29:56;;;;;;;7.47;1.43;;;;;;;;;;5088693;28;20671;-62
2021/12/02 01:32:22;;;;;;;7.57;1.40;;;;;;;;;;5063831;28;20040;-62
2021/12/02 01:34:48;;;;;;;8.37;1.30;;;;;;;;;;5078279;28;20049;-61
2021/12/02 01:37:15;;;;;;;10.03;1.70;;;;;;;;;;5079416;28;20690;-61
2021/12/02 01:39:41;;;;;;;9.17;1.23;;;;;;;;;;5077621;28;20392;-62
2021/12/02 01:42:10;;;;;;;13.33;1.30;;;;;;;;;;5088841;28;20281;-62
2021/12/02 01:44:41;;;;;;;15.77;1.80;;;;;;;;;;5087143;28;20294;-61
2021/12/02 01:47:11;;;;;;;8.90;1.33;;;;;;;;;;5090757;28;20044;-61
2021/12/02 01:49:40;;;;;;;9.63;1.20;;;;;;;;;;5085067;28;20376;-62
2021/12/02 01:52:09;;;;;;;12.83;1.70;;;;;;;;;;5090587;28;20048;-62
2021/12/02 01:54:38;;;;;;;5.63;2.00;;;;;;;;;;5087913;28;20513;-61
2021/12/02 01:57:07;;;;;;;13.20;1.47;;;;;;;;;;5088822;28;20306;-61
2021/12/02 01:59:34;;;;;;;11.17;1.40;;;;;;;;;;5089098;28;20309;-62
2021/12/02 02:02:04;;;;;;;9.13;1.60;;;;;;;;;;5088133;28;20487;-62
2021/12/02 02:04:30;;;;;;;11.77;2.40;;;;;;;;;;5087711;28;20425;-62
2021/12/02 02:07:00;;;;;;;8.00;1.73;;;;;;;;;;5069707;28;20095;-61
2021/12/02 02:09:28;;;;;;;16.00;1.30;;;;;;;;;;5051894;28;20291;-62
2021/12/02 02:11:54;;;;;;;10.00;2.47;;;;;;;;;;5090060;28;20055;-62
2021/12/02 02:14:21;;;;;;;12.47;1.40;;;;;;;;;;5088511;28;20099;-61
2021/12/02 02:16:48;;;;;;;14.47;1.87;;;;;;;;;;5083953;28;20060;-62
2021/12/02 02:19:14;;;;;;;9.67;1.90;;;;;;;;;;5089822;28;20302;-62
2021/12/02 02:21:41;;;;;;;9.13;1.53;;;;;;;;;;5088133;28;20306;-62
2021/12/02 02:24:12;;;;;;;11.90;1.30;;;;;;;;;;5089262;28;20286;-63
2021/12/02 02:26:38;;;;;;;5.40;0.90;;;;;;;;;;5088207;28;20290;-64
2021/12/02 02:29:05;;;;;;;14.17;1.23;;;;;;;;;;5087814;28;20052;-65
2021/12/02 02:31:32;;;;;;;4.97;1.00;;;;;;;;;;5088618;28;20302;-65
2021/12/02 02:33:58;;;;;;;4.57;1.00;;;;;;;;;;5088082;28;20316;-64
2021/12/02 02:36:26;;;;;;;5.80;0.77;;;;;;;;;;5089213;28;20055;-63
2021/12/02 02:38:56;;;;;;;5.40;1.10;;;;;;;;;;5088836;28;20310;-63
2021/12/02 02:41:27;;;;;;;7.13;2.27;;;;;;;;;;5088939;28;20361;-63
2021/12/02 02:43:56;;;;;;;3.27;1.00;;;;;;;;;;5088596;28;20301;-63
2021/12/02 02:46:32;;;;;;;6.87;0.80;;;;;;;;;;5089023;28;20799;-63
2021/12/02 02:48:59;;;;;;;6.50;1.03;;;;;;;;;;5086696;28;20314;-63
2021/12/02 02:51:26;;;;;;;7.17;1.23;;;;;;;;;;5089200;28;20893;-63
2021/12/02 02:53:55;;;;;;;4.57;1.03;;;;;;;;;;5084664;28;20347;-63
2021/12/02 02:56:22;;;;;;;7.30;1.10;;;;;;;;;;5088905;28;20294;-63
2021/12/02 02:59:01;;;;;;;12.37;2.27;;;;;;;;;;5084751;28;20294;-62
2021/12/02 03:01:41;;;;;;;7.17;0.90;;;;;;;;;;5068919;28;20302;-62
2021/12/02 03:04:19;;;;;;;5.70;1.00;;;;;;;;;;5087671;28;20305;-63
2021/12/02 03:12:25;;;;;;;5.57;1.00;;;;;;;;;;5089173;28;20278;-62
2021/12/02 03:17:38;;;;;;;6.20;0.90;;;;;;;;;;5046972;28;20298;-62
2021/12/02 03:20:04;;;;;;;3.10;0.63;;;;;;;;;;5088503;28;20339;-62
2021/12/02 03:22:33;;;;;;;3.13;0.80;;;;;;;;;;5088139;28;20075;-63
2021/12/02 03:24:59;;;;;;;8.70;1.83;;;;;;;;;;5086028;28;20302;-62
2021/12/02 03:27:26;;;;;;;4.07;0.90;;;;;;;;;;5067615;28;20795;-62
2021/12/02 03:29:52;;;;;;;4.93;0.80;;;;;;;;;;5067606;28;20302;-62
2021/12/02 03:32:18;;;;;;;2.07;0.40;;;;;;;;;;5085804;28;20313;-62
2021/12/02 03:34:44;;;;;;;1.80;0.50;;;;;;;;;;5084638;28;20322;-62
2021/12/02 03:37:10;;;;;;;3.17;1.13;;;;;;;;;;5087099;28;20302;-62
2021/12/02 03:39:36;;;;;;;3.70;0.70;;;;;;;;;;5085307;28;20359;-62
2021/12/02 03:42:03;;;;;;;2.70;0.73;;;;;;;;;;5090763;28;20326;-62
2021/12/02 03:44:29;;;;;;;3.63;0.80;;;;;;;;;;5090056;28;20355;-62
2021/12/02 03:46:55;;;;;;;4.10;0.93;;;;;;;;;;5091340;28;20289;-62
2021/12/02 03:49:21;;;;;;;1.57;0.73;;;;;;;;;;5086805;28;20356;-62
2021/12/02 03:51:47;;;;;;;3.63;0.80;;;;;;;;;;5076869;28;20413;-61
2021/12/02 03:54:14;;;;;;;3.10;0.70;;;;;;;;;;5090597;28;20331;-62
2021/12/02 03:56:40;;;;;;;3.90;0.90;;;;;;;;;;5088270;28;20872;-62
2021/12/02 03:59:06;;;;;;;2.90;0.93;;;;;;;;;;5090624;28;20698;-62
2021/12/02 04:01:32;;;;;;;2.33;0.73;;;;;;;;;;5091013;28;20845;-62
2021/12/02 04:03:58;;;;;;;2.90;1.07;;;;;;;;;;5090946;28;20435;-62
2021/12/02 04:06:24;;;;;;;1.37;0.60;;;;;;;;;;5090480;28;20396;-62
2021/12/02 04:08:53;;;;;;;8.80;1.20;;;;;;;;;;5091847;28;20055;-62
2021/12/02 04:14:07;;;;;;;2.67;0.73;;;;;;;;;;5085519;28;20334;-62
2021/12/02 04:16:36;;;;;;;4.55;0.90;;;;;;;;;;5091120;28;20396;-61
2021/12/02 04:19:03;;;;;;;5.67;1.13;;;;;;;;;;5091877;28;20603;-62
2021/12/02 04:21:29;;;;;;;3.23;0.93;;;;;;;;;;5089799;28;20712;-62
2021/12/02 04:23:55;;;;;;;5.10;1.07;;;;;;;;;;5090368;28;20590;-62
2021/12/02 04:26:22;;;;;;;8.50;1.17;;;;;;;;;;5091821;28;20290;-62
2021/12/02 04:28:48;;;;;;;2.83;1.00;;;;;;;;;;5089038;28;20313;-62
2021/12/02 04:31:14;;;;;;;2.17;0.80;;;;;;;;;;5089800;28;20294;-62
2021/12/02 04:33:40;;;;;;;1.63;0.60;;;;;;;;;;5089215;28;20123;-62
2021/12/02 04:36:06;;;;;;;2.60;0.80;;;;;;;;;;5091288;28;20389;-62
2021/12/02 04:38:33;;;;;;;2.60;0.80;;;;;;;;;;5090911;28;20059;-62
2021/12/02 04:40:59;;;;;;;3.97;1.10;;;;;;;;;;5091500;28;20321;-62
2021/12/02 04:43:25;;;;;;;4.37;0.80;;;;;;;;;;5089776;28;20321;-62
2021/12/02 04:45:51;;;;;;;4.20;0.67;;;;;;;;;;5091519;28;20278;-62
2021/12/02 04:48:18;;;;;;;4.07;0.80;;;;;;;;;;5076534;28;20050;-63
2021/12/02 04:50:44;;;;;;;1.90;0.40;;;;;;;;;;5086357;28;20317;-62
2021/12/02 04:53:11;;;;;;;3.37;0.60;;;;;;;;;;5090894;28;20290;-62
2021/12/02 04:55:37;;;;;;;6.20;0.80;;;;;;;;;;5090528;28;20866;-62
2021/12/02 04:58:03;;;;;;;3.23;0.60;;;;;;;;;;5088276;28;20302;-62
2021/12/02 05:00:29;;;;;;;4.73;0.70;;;;;;;;;;5089125;28;20301;-62
2021/12/02 05:02:55;;;;;;;4.53;0.80;;;;;;;;;;5089424;28;20294;-62
2021/12/02 05:05:23;;;;;;;6.77;1.70;;;;;;;;;;5090138;28;20379;-63
2021/12/02 05:07:52;;;;;;;7.23;0.97;;;;;;;;;;5090710;28;20282;-62
2021/12/02 05:10:18;;;;;;;5.17;1.07;;;;;;;;;;5089892;28;20307;-62
2021/12/02 05:12:44;;;;;;;4.67;1.47;;;;;;;;;;5072020;28;20283;-62
2021/12/02 05:15:10;;;;;;;9.23;1.20;;;;;;;;;;5089924;28;20067;-62
2021/12/02 05:17:36;;;;;;;5.70;1.00;;;;;;;;;;5090597;28;20060;-63
2021/12/02 05:20:03;;;;;;;11.53;2.03;;;;;;;;;;5088148;28;20298;-62
2021/12/02 05:22:29;;;;;;;4.23;1.00;;;;;;;;;;5082225;28;20701;-62
2021/12/02 05:24:55;;;;;;;10.07;1.67;;;;;;;;;;5083601;28;20294;-62
2021/12/02 05:27:21;;;;;;;4.63;1.10;;;;;;;;;;5090688;28;20040;-62
2021/12/02 05:29:47;;;;;;;5.10;0.97;;;;;;;;;;5088969;28;20286;-63
2021/12/02 05:32:13;;;;;;;4.83;1.00;;;;;;;;;;5088749;28;20336;-62
2021/12/02 05:34:39;;;;;;;5.83;1.20;;;;;;;;;;5088925;28;20409;-62
2021/12/02 05:37:05;;;;;;;4.43;1.27;;;;;;;;;;5088442;28;20817;-63
2021/12/02 05:39:31;;;;;;;2.70;1.17;;;;;;;;;;5089722;28;20294;-62
2021/12/02 05:41:57;;;;;;;5.53;0.83;;;;;;;;;;5070680;28;20287;-62
2021/12/02 05:44:24;;;;;;;11.80;1.50;;;;;;;;;;5081839;28;20329;-62
2021/12/02 05:46:51;;;;;;;5.57;1.00;;;;;;;;;;5090150;28;20286;-62
2021/12/02 05:49:17;;;;;;;5.10;1.13;;;;;;;;;;5087116;28;20456;-62
2021/12/02 05:51:45;;;;;;;5.23;0.90;;;;;;;;;;5090200;28;20357;-62
2021/12/02 05:54:11;;;;;;;7.43;1.63;;;;;;;;;;5087611;28;20305;-62
2021/12/02 05:56:37;;;;;;;3.50;1.07;;;;;;;;;;5078826;28;20304;-62
2021/12/02 05:59:03;;;;;;;2.77;0.67;;;;;;;;;;5089094;28;20286;-62
2021/12/02 06:01:29;;;;;;;5.40;0.87;;;;;;;;;;5088317;28;20810;-62
2021/12/02 06:03:55;;;;;;;2.73;0.70;;;;;;;;;;5089078;28;20564;-62
2021/12/02 06:06:25;;;;;;;4.53;1.23;;;;;;;;;;5089347;28;20321;-62
2021/12/02 06:08:51;;;;;;;3.03;0.70;;;;;;;;;;5089717;28;21340;-62
2021/12/02 06:11:17;;;;;;;3.87;0.87;;;;;;;;;;5086717;28;20302;-62
2021/12/02 06:13:45;;;;;;;2.30;0.60;;;;;;;;;;5088694;28;20048;-62
2021/12/02 06:16:11;;;;;;;12.03;2.73;;;;;;;;;;5088643;28;20079;-62
2021/12/02 06:18:36;;;;;;;6.40;0.73;;;;;;;;;;5089155;28;20325;-62
2021/12/02 06:21:02;;;;;;;92.73;10.07;;;;;;;;;;5088342;28;20044;-62
2021/12/02 06:23:29;;;;;;;7.83;0.90;;;;;;;;;;5089176;28;20051;-62
2021/12/02 06:25:55;;;;;;;2.97;0.50;;;;;;;;;;5084272;28;20298;-62
2021/12/02 06:28:21;;;;;;;2.30;0.63;;;;;;;;;;5080918;28;20298;-62
2021/12/02 06:30:47;;;;;;;16.67;1.37;;;;;;;;;;5082674;28;20112;-62
2021/12/02 06:33:13;;;;;;;2.30;0.60;;;;;;;;;;5084131;28;20392;-62
2021/12/02 06:35:40;;;;;;;3.93;0.80;;;;;;;;;;5081663;28;21269;-62
2021/12/02 06:38:06;;;;;;;1.80;0.60;;;;;;;;;;5069465;28;20287;-62
2021/12/02 06:40:34;;;;;;;3.80;0.60;;;;;;;;;;5081141;28;20285;-62
2021/12/02 06:43:00;;;;;;;56.27;11.53;;;;;;;;;;5089204;28;20052;-62
2021/12/02 06:45:26;;;;;;;4.13;0.70;;;;;;;;;;5088886;28;20659;-62
2021/12/02 06:47:57;;;;;;;1.97;0.80;;;;;;;;;;5089062;28;20840;-62
2021/12/02 06:50:23;;;;;;;9.47;1.70;;;;;;;;;;5075981;28;20676;-63
2021/12/02 06:52:49;;;;;;;2.93;0.83;;;;;;;;;;5078626;28;20863;-62
2021/12/02 06:55:16;;;;;;;5.37;1.00;;;;;;;;;;5072124;28;20305;-62
2021/12/02 06:57:42;;;;;;;3.13;1.00;;;;;;;;;;5087385;28;20343;-63
2021/12/02 07:00:11;;;;;;;2.93;1.27;;;;;;;;;;5076836;28;20301;-62
2021/12/02 07:02:37;;;;;;;4.10;1.60;;;;;;;;;;5077784;28;20833;-63
2021/12/02 07:05:04;;;;;;;4.77;1.47;;;;;;;;;;5071684;28;20305;-63
2021/12/02 07:07:38;;;;;;;4.90;1.50;;;;;;;;;;5074355;28;20307;-63
2021/12/02 07:10:09;;;;;;;6.27;1.50;;;;;;;;;;5050941;28;20715;-63
2021/12/02 07:12:38;;;;;;;5.63;2.00;;;;;;;;;;5050576;28;20887;-63
2021/12/02 07:15:08;;;;;;;5.73;1.60;;;;;;;;;;5084281;28;20314;-63
2021/12/02 07:17:34;;;;;;;3.77;1.40;;;;;;;;;;5088472;28;20397;-62
2021/12/02 07:20:00;;;;;;;4.57;1.63;;;;;;;;;;5086017;28;21037;-63
2021/12/02 07:22:27;;;;;;;5.63;1.70;;;;;;;;;;5089069;28;20310;-62
2021/12/02 07:24:53;;;;;;;6.93;2.20;;;;;;;;;;5064025;28;20303;-62
2021/12/02 07:27:19;;;;;;;7.30;1.93;;;;;;;;;;5084903;28;20325;-62
2021/12/02 07:29:45;;;;;;;9.50;2.87;;;;;;;;;;5086424;28;20310;-62
2021/12/02 07:32:12;;;;;;;12.73;3.20;;;;;;;;;;5087911;28;20294;-62
2021/12/02 07:34:41;;;;;;;6.43;2.63;;;;;;;;;;5088231;28;21018;-62
2021/12/02 07:37:07;;;;;;;6.83;3.10;;;;;;;;;;5087814;28;20728;-62
2021/12/02 07:39:33;;;;;;;663.87;75.40;;;;;;;;;;5087138;28;20313;-62
2021/12/02 07:41:59;;;;;;;455.80;53.20;;;;;;;;;;5088414;28;20309;-63
2021/12/02 07:44:26;;;;;;;11.20;2.73;;;;;;;;;;5087819;28;20814;-63
2021/12/02 07:46:52;;;;;;;10.27;3.43;;;;;;;;;;5087491;28;20298;-63
2021/12/02 07:49:18;;;;;;;7.47;2.77;;;;;;;;;;5085993;28;20847;-62
2021/12/02 07:51:45;;;;;;;9.00;3.60;;;;;;;;;;5086575;28;20282;-62
2021/12/02 07:54:13;;;;;;;10.80;3.60;;;;;;;;;;5086216;28;20135;-63
2021/12/02 07:56:39;;;;;;;5.73;2.57;;;;;;;;;;5086765;28;20290;-63
2021/12/02 07:59:05;;;;;;;11.33;3.40;;;;;;;;;;5088008;28;20305;-62
2021/12/02 08:01:35;;;;;;;5.80;2.20;;;;;;;;;;5087462;28;20325;-62
2021/12/02 08:04:01;;;;;;;6.47;2.30;;;;;;;;;;5087874;28;20290;-62
2021/12/02 08:06:28;;;;;;;7.50;2.10;;;;;;;;;;5087775;28;20331;-62
2021/12/02 08:08:54;;;;;;;235.93;27.17;;;;;;;;;;5087987;28;20305;-62
2021/12/02 08:11:20;;;;;;;17.10;2.37;;;;;;;;;;5087953;28;20362;-62
2021/12/02 08:13:51;;;;;;;3.20;1.33;;;;;;;;;;5087506;28;20339;-62
2021/12/02 08:16:18;;;;;;;8.37;1.90;;;;;;;;;;5087745;28;20301;-62
2021/12/02 08:18:44;;;;;;;7.77;1.47;;;;;;;;;;5087650;28;20312;-62
2021/12/02 08:21:11;;;;;;;5.63;1.63;;;;;;;;;;5086565;28;20317;-62
2021/12/02 08:23:37;;;;;;;4.17;1.50;;;;;;;;;;5073425;28;20532;-62
2021/12/02 08:26:03;;;;;;;9.23;1.33;;;;;;;;;;5070600;28;20070;-61
2021/12/02 08:28:29;;;;;;;4.60;1.73;;;;;;;;;;5073480;28;20283;-62
2021/12/02 08:30:57;;;;;;;3.47;1.30;;;;;;;;;;5091123;28;20264;-61
2021/12/02 08:33:23;;;;;;;4.03;1.30;;;;;;;;;;5090479;28;20055;-61
2021/12/02 08:35:49;;;;;;;4.63;1.77;;;;;;;;;;5090582;28;20316;-61
2021/12/02 08:38:18;;;;;;;98.17;10.23;;;;;;;;;;5072577;28;20282;-61
2021/12/02 08:40:47;;;;;;;5.87;1.53;;;;;;;;;;5090065;28;20409;-61
2021/12/02 08:43:13;;;;;;;6.43;1.23;;;;;;;;;;5089964;28;20061;-61
2021/12/02 08:45:41;;;;;;;7.37;1.60;;;;;;;;;;5089612;28;20040;-61
2021/12/02 08:48:08;;;;;;;9.17;2.83;;;;;;;;;;5090798;28;20290;-61
2021/12/02 08:50:35;;;;;;;3.53;1.40;;;;;;;;;;5090637;28;20042;-61
2021/12/02 08:53:02;;;;;;;6.40;1.33;;;;;;;;;;5071742;28;20785;-61
2021/12/02 08:55:31;;;;;;;5.97;1.70;;;;;;;;;;5086940;28;20048;-61
2021/12/02 08:57:58;;;;;;;6.70;1.37;;;;;;;;;;5070467;28;20128;-61
2021/12/02 09:00:27;;;;;;;9.53;1.60;;;;;;;;;;5070564;28;20040;-61
2021/12/02 09:02:53;;;;;;;3.17;1.50;;;;;;;;;;5070363;28;20044;-61
2021/12/02 09:05:19;;;;;;;4.47;1.70;;;;;;;;;;5070291;28;20337;-61
2021/12/02 09:07:46;;;;;;;6.63;1.70;;;;;;;;;;5069920;28;20278;-61
2021/12/02 09:10:12;;;;;;;5.17;1.50;;;;;;;;;;5069161;28;20081;-61
2021/12/02 09:12:39;;;;;;;7.50;1.90;;;;;;;;;;5070403;28;20120;-61
2021/12/02 09:15:09;;;;;;;6.20;1.40;;;;;;;;;;5085044;28;20531;-61
2021/12/02 09:17:36;;;;;;;2.37;0.90;;;;;;;;;;5089561;28;20279;-61
2021/12/02 09:20:03;;;;;;;5.23;1.20;;;;;;;;;;5090058;28;20048;-61
2021/12/02 09:22:29;;;;;;;7.03;1.20;;;;;;;;;;5078081;28;20098;-62
2021/12/02 09:24:55;;;;;;;5.57;1.50;;;;;;;;;;5070374;28;20545;-61
2021/12/02 09:27:21;;;;;;;3.63;1.37;;;;;;;;;;5080612;28;20040;-62
2021/12/02 09:29:47;;;;;;;3.07;0.90;;;;;;;;;;5087881;28;20043;-61
2021/12/02 09:32:13;;;;;;;8.17;1.83;;;;;;;;;;5088653;28;20046;-61
2021/12/02 09:34:39;;;;;;;2.80;0.90;;;;;;;;;;5089124;28;20059;-61
2021/12/02 09:37:05;;;;;;;3.93;1.10;;;;;;;;;;5086699;28;20083;-61
2021/12/02 09:39:33;;;;;;;4.43;1.40;;;;;;;;;;5086830;28;20051;-61
2021/12/02 09:41:59;;;;;;;4.20;1.40;;;;;;;;;;5089507;28;20074;-61
2021/12/02 09:44:25;;;;;;;6.43;1.00;;;;;;;;;;5089337;28;20090;-62
2021/12/02 09:46:52;;;;;;;5.13;1.23;;;;;;;;;;5089754;28;20052;-62
2021/12/02 09:49:19;;;;;;;1.93;0.87;;;;;;;;;;5089514;28;20044;-62
2021/12/02 09:52:00;;;;;;;2.43;0.80;;;;;;;;;;5088619;28;20056;-62
2021/12/02 09:56:59;;;;;;;9.73;1.23;;;;;;;;;;5089259;28;20068;-62
2021/12/02 10:02:22;;;;;;;4.20;0.80;;;;;;;;;;5075465;28;20857;-62
2021/12/02 10:05:01;;;;;;;5.83;1.77;;;;;;;;;;5088948;28;20056;-62
2021/12/02 10:07:37;;;;;;;5.57;1.80;;;;;;;;;;5087791;28;20089;-62
2021/12/02 10:10:12;;;;;;;2.03;1.00;;;;;;;;;;5079086;28;20509;-62
2021/12/02 10:12:52;;;;;;;3.23;0.50;;;;;;;;;;5068727;28;20044;-62
2021/12/02 10:15:19;;;;;;;2.30;0.60;;;;;;;;;;5085017;28;20059;-62
2021/12/02 10:17:48;;;;;;;1.07;0.60;;;;;;;;;;5088550;28;20040;-62
2021/12/02 10:23:10;;;;;;;2.70;0.70;;;;;;;;;;5089032;28;20493;-62
2021/12/02 10:25:36;;;;;;;2.40;1.00;;;;;;;;;;5089294;28;20059;-62
2021/12/02 10:28:07;;;;;;;2.20;0.50;;;;;;;;;;5088491;28;20040;-62
2021/12/02 10:30:34;;;;;;;3.53;0.80;;;;;;;;;;5070380;28;20071;-61
2021/12/02 10:33:00;;;;;;;3.13;0.63;;;;;;;;;;5088567;28;20073;-61
2021/12/02 10:35:46;;;;;;;3.17;0.73;;;;;;;;;;5088434;28;20084;-61
2021/12/02 10:38:30;;;;;;;1.40;0.70;;;;;;;;;;5088631;28;20051;-61
2021/12/02 10:40:58;;;;;;;6.10;0.97;;;;;;;;;;5069362;28;20498;-61
2021/12/02 10:43:24;;;;;;;2.03;1.20;;;;;;;;;;5088167;28;20056;-62
2021/12/02 10:45:50;;;;;;;3.77;1.10;;;;;;;;;;5069952;28;20055;-61
2021/12/02 10:48:16;;;;;;;3.40;1.00;;;;;;;;;;5088321;28;20081;-62
2021/12/02 10:50:42;;;;;;;2.67;0.60;;;;;;;;;;5088448;28;20751;-61
2021/12/02 10:53:08;;;;;;;3.77;0.80;;;;;;;;;;5088320;28;20513;-61
2021/12/02 10:55:35;;;;;;;5.63;1.00;;;;;;;;;;5088200;28;20101;-62
2021/12/02 10:58:01;;;;;;;1.87;1.03;;;;;;;;;;5087828;28;20036;-62
2021/12/02 11:00:33;;;;;;;10.10;1.53;;;;;;;;;;5087925;28;20405;-62
2021/12/02 11:03:00;;;;;;;2.93;1.10;;;;;;;;;;5088398;28;20054;-62
2021/12/02 11:05:32;;;;;;;36.03;4.30;;;;;;;;;;5087955;28;20054;-62
2021/12/02 11:08:06;;;;;;;4.00;1.27;;;;;;;;;;5088836;28;20140;-64
2021/12/02 11:10:34;;;;;;;6.63;1.00;;;;;;;;;;5088106;28;20051;-64
2021/12/02 11:13:01;;;;;;;2.83;1.03;;;;;;;;;;5069717;28;20554;-64
2021/12/02 11:15:30;;;;;;;4.87;1.60;;;;;;;;;;5088043;28;20056;-64
2021/12/02 11:17:58;;;;;;;5.60;1.20;;;;;;;;;;5087946;28;20047;-64
2021/12/02 11:20:25;;;;;;;4.80;0.67;;;;;;;;;;5087638;28;20157;-64
2021/12/02 11:23:03;;;;;;;2.97;1.07;;;;;;;;;;5088087;28;20048;-64
2021/12/02 11:25:29;;;;;;;5.13;1.13;;;;;;;;;;5086670;28;20048;-64
2021/12/02 11:27:56;;;;;;;3.47;0.40;;;;;;;;;;5087574;28;20469;-64
2021/12/02 11:30:23;;;;;;;2.03;0.50;;;;;;;;;;5088339;28;20127;-64
2021/12/02 11:32:57;;;;;;;4.23;0.70;;;;;;;;;;5087751;28;20044;-64
2021/12/02 11:35:23;;;;;;;;;;;;;;;;;;5088139;28;20044;-64
2021/12/02 11:37:54;;;;;;;2.00;0.30;;;;;;;;;;5087886;28;19920;-64
2021/12/02 11:40:21;;;;;;;1.07;0.33;;;;;;;;;;5087337;28;20118;-64
2021/12/02 11:42:49;;;;;;;1.47;0.30;;;;;;;;;;5087594;28;20109;-64
2021/12/02 11:45:17;;;;;;;1.57;0.40;;;;;;;;;;5052734;28;20044;-64
2021/12/02 11:47:43;;;;;;;2.67;0.60;;;;;;;;;;5087741;28;20044;-64
2021/12/02 11:50:10;;;;;;;0.90;0.30;;;;;;;;;;5087671;28;20040;-64
2021/12/02 11:52:37;;;;;;;4.03;0.43;;;;;;;;;;5087767;28;20051;-63
2021/12/02 11:55:05;;;;;;;2.40;0.60;;;;;;;;;;5087554;28;20052;-64
2021/12/02 11:57:33;;;;;;;1.13;0.20;;;;;;;;;;5090041;28;20059;-64
2021/12/02 12:00:00;;;;;;;1.23;0.40;;;;;;;;;;5091680;28;20420;-64
2021/12/02 12:02:26;;;;;;;3.27;0.50;;;;;;;;;;5091362;28;20047;-63
2021/12/02 12:05:01;;;;;;;4.73;0.60;;;;;;;;;;5072621;28;20067;-63
2021/12/02 12:07:38;;;;;;;2.93;0.60;;;;;;;;;;5089863;28;20090;-64
2021/12/02 12:10:23;;;;;;;2.90;0.30;;;;;;;;;;5070145;28;20044;-65
2021/12/02 12:12:50;;;;;;;1.07;0.40;;;;;;;;;;5070309;28;20107;-63
2021/12/02 12:15:36;;;;;;;2.23;0.50;;;;;;;;;;5086945;28;20055;-63
2021/12/02 12:18:02;;;;;;;2.30;0.50;;;;;;;;;;5091412;28;20055;-63
2021/12/02 12:20:47;;;;;;;3.47;0.80;;;;;;;;;;5072851;28;20513;-64
2021/12/02 12:23:30;;;;;;;1.87;0.50;;;;;;;;;;5091194;28;20478;-64
2021/12/02 12:26:13;;;;;;;3.97;0.60;;;;;;;;;;5090253;28;20044;-66
2021/12/02 12:28:58;;;;;;;3.80;1.35;;;;;;;;;;5076377;28;20056;-70
2021/12/02 12:31:24;;;;;;;1.77;0.60;;;;;;;;;;5070426;28;20055;-70
2021/12/02 12:33:50;;;;;;;1.57;0.40;;;;;;;;;;5070970;28;20044;-69
2021/12/02 12:36:41;;;;;;;1.20;0.40;;;;;;;;;;5070718;28;20059;-67
2021/12/02 12:39:17;;;;;;;1.60;0.50;;;;;;;;;;5069372;28;20048;-69
2021/12/02 12:41:44;;;;;;;2.87;0.70;;;13.00;99.90;;;;;;5070475;28;20083;-70
2021/12/02 12:44:10;;;;;;;3.30;0.43;;;4.10;99.90;;;;;;5067952;28;20036;-69
2021/12/02 12:46:52;;;;;;;1.87;0.40;;;3.80;99.90;;;;;;5072801;28;20044;-70
2021/12/02 12:49:18;;;;;;;3.07;0.40;;;3.70;99.90;;;;;;5072136;28;20036;-73
2021/12/02 12:51:53;;;;;;;3.90;0.93;;;3.80;99.90;;;;;;5072465;28;20047;-70
2021/12/02 12:54:21;;;;;;;3.33;0.77;;;3.90;99.90;;;;;;5071997;28;20170;-71
2021/12/02 12:56:48;;;;;;;0.63;0.50;;;4.00;99.90;;;;;;5071364;28;20520;-70
2021/12/02 12:59:18;;;;;;;3.67;0.60;;;4.00;99.90;;;;;;5090114;28;20059;-69
2021/12/02 13:02:02;;;;;;;1.00;0.60;;;4.10;99.90;;;;;;5072455;28;20047;-69
2021/12/02 13:04:30;;;;;;;1.60;0.60;;;6.40;99.90;;;;;;5072265;28;20516;-69
2021/12/02 13:07:11;;;;;;;2.03;0.83;;;7.70;99.90;;;;;;5072342;28;20048;-70
2021/12/02 13:09:45;;;;;;;4.63;0.97;;;8.80;57.20;;;;;;5072049;28;20052;-69
2021/12/02 13:12:12;;;;;;;;;;;9.40;1.00;;;;;;5089911;28;20090;-68
2021/12/02 13:14:41;;;;;;;11.70;1.73;;;9.90;1.00;;;;;;5067744;28;19924;-68
2021/12/02 13:17:44;;;;;;;11.30;1.70;;;10.40;1.00;;;;;;5068458;28;20098;-70
2021/12/02 13:20:18;;;;;;;79.10;7.87;;;10.90;1.00;;;;;;5068657;28;20076;-70
2021/12/02 13:22:45;;;;;;;89.90;8.87;;;11.40;99.90;;;;;;5068687;28;20438;-70
2021/12/02 13:25:41;;;;;;;92.07;10.50;;;11.70;99.90;;;;;;5068537;28;20405;-69
2021/12/02 13:28:15;;;;;;;52.87;5.60;;;11.90;99.90;;;;;;5068361;28;20492;-69
2021/12/02 13:30:49;;;;;;;87.57;7.43;;;12.20;99.90;;;;;;5069806;28;20067;-68
2021/12/02 13:33:15;;;;;;;;;;;12.50;99.90;;;;;;5069004;28;20090;-69
2021/12/02 13:35:40;;;;;;;86.07;7.23;;;12.70;99.90;;;;;;5069502;28;19921;-69
2021/12/02 13:38:06;;;;;;;64.33;6.37;;;12.60;99.90;;;;;;5051405;28;20059;-69
2021/12/02 13:40:37;;;;;;;8.63;1.60;;;12.70;99.90;;;;;;5067826;28;20052;-70
2021/12/02 13:43:04;;;;;;;31.83;3.67;;;12.80;99.90;;;;;;5067244;28;20044;-70
2021/12/02 13:45:30;;;;;;;24.13;2.93;;;12.90;99.90;;;;;;5068127;28;20048;-70
2021/12/02 13:48:17;;;;;;;10.90;1.67;;;12.20;99.90;;;;;;5068298;28;20059;-70
2021/12/02 13:50:48;;;;;;;3.33;0.63;;;10.80;99.90;;;;;;5068256;28;20102;-70
2021/12/02 13:53:14;;;;;;;2.00;0.67;;;;;;;;;;5063785;28;20561;-70
2021/12/02 13:55:43;;;;;;;3.60;0.63;;;;;;;;;;5068158;28;20182;-70
2021/12/02 14:00:43;;;;;;;4.37;2.10;;;8.10;99.90;;;;;;5048160;28;20057;-70
2021/12/02 14:03:16;;;;;;;6.67;0.97;;;8.60;99.90;;;;;;5062916;28;20109;-70
2021/12/02 14:05:56;;;;;;;4.20;1.13;;;9.10;99.90;;;;;;5067286;28;20048;-70
2021/12/02 14:08:25;;;;;;;17.87;2.37;;;9.60;99.90;;;;;;5067941;28;20045;-70
2021/12/02 14:10:52;;;;;;;189.97;20.20;;;9.70;99.90;;;;;;5051333;28;20052;-70
2021/12/02 14:13:23;;;;;;;183.73;20.40;;;10.10;99.90;;;;;;5065570;28;20044;-71
2021/12/02 14:15:56;;;;;;;156.33;17.57;;;10.60;99.90;;;;;;5070517;28;20056;-71
2021/12/02 14:18:24;;;;;;;65.13;6.35;;;10.50;99.90;;;;;;5071050;28;20061;-70
2021/12/02 14:20:52;;;;;;;27.47;4.73;;;;;;;;;;5068494;28;20073;-70
2021/12/02 14:23:20;;;;;;;23.57;3.17;;;;;;;;;;5070300;28;20048;-71
2021/12/02 14:25:50;;;;;;;34.87;4.30;;;;;;;;;;5070924;28;20051;-70
2021/12/02 14:28:33;;;;;;;82.03;9.20;;;9.80;99.90;;;;;;5071303;28;20067;-70
2021/12/02 14:31:01;;;;;;;16.95;2.72;;;;;;;;;;5071025;28;20127;-70
2021/12/02 14:33:34;;;;;;;33.23;4.67;;;;;;;;;;5070946;28;20039;-70
2021/12/02 14:36:05;;;;;;;4.65;1.10;;;8.20;99.90;;;;;;5070821;28;20048;-70
2021/12/02 14:38:33;;;;;;;1.83;0.70;;;;;;;;;;5054970;28;20057;-70
2021/12/02 14:41:08;;;;;;;2.63;0.60;;;;;;;;;;5050632;28;20041;-70
2021/12/02 14:43:34;;;;;;;3.10;0.60;;;6.00;99.90;;;;;;5050989;28;20036;-71
2021/12/02 14:46:33;;;;;;;1.27;0.67;;;5.30;99.90;;;;;;5050502;28;20071;-70
2021/12/02 14:49:25;;;;;;;2.43;0.77;;;4.60;99.90;;;;;;5039809;28;20056;-71
2021/12/02 14:52:03;;;;;;;3.10;0.77;;;4.00;99.90;;;;;;5033810;28;20051;-70
2021/12/02 14:54:36;;;;;;;3.53;0.80;;;3.60;99.90;;;;;;5067660;28;20356;-71
2021/12/02 14:57:05;;;;;;;2.10;1.23;;;3.20;99.90;;;;;;5049888;28;20488;-70
2021/12/02 14:59:36;;;;;;;2.27;0.60;;;2.80;99.90;;;;;;5049361;28;20049;-70
2021/12/02 15:02:07;;;;;;;2.87;0.67;;;2.40;99.90;;;;;;5050276;28;20047;-71